Time;durP1;ratioP1;P1;durP2;ratioP2;P2;SDS_P1;SDS_P2;PMS_P1;PMS_P2;Temp;Humidity;BMP_temperature;BMP_pressure;BME280_temperature;BME280_humidity;BME280_pressure;Samples;Min_cycle;Max_cycle;Signal;HPM_P1;HPM_P2
2022/08/05 09:51:58;;;;;;;6.57;4.87;;;26.30;99.90;;;;;;5129150;27;20611;-61
2022/08/05 09:54:30;;;;;;;6.43;3.00;;;26.50;99.90;;;;;;5109264;28;20465;-60
2022/08/05 09:56:57;;;;;;;4.00;3.70;;;26.70;99.90;;;;;;5109422;28;20448;-59
2022/08/05 09:59:24;;;;;;;6.23;4.10;;;26.80;99.90;;;;;;5109399;28;20473;-60
2022/08/05 10:04:17;;;;;;;4.63;3.70;;;27.00;99.90;;;;;;5093778;22;20523;-67
2022/08/05 10:06:54;;;;;;;3.50;3.20;;;27.10;99.90;;;;;;5091862;28;20230;-65
2022/08/05 10:09:23;;;;;;;6.53;3.53;;;27.10;99.90;;;;;;5089396;28;20526;-62
2022/08/05 10:11:50;;;;;;;5.07;3.30;;;27.10;99.90;;;;;;5085907;28;20476;-61
2022/08/05 10:14:25;;;;;;;5.40;2.93;;;27.10;99.90;;;;;;5053826;28;20809;-61
2022/08/05 10:16:55;;;;;;;4.20;3.80;;;27.10;99.90;;;;;;5033034;28;20476;-61
2022/08/05 10:19:24;;;;;;;8.63;4.33;;;27.10;99.90;;;;;;5031554;28;20441;-64
2022/08/05 10:21:51;;;;;;;3.93;3.73;;;27.10;99.90;;;;;;5030042;28;20473;-64
2022/08/05 10:24:19;;;;;;;4.33;3.10;;;27.10;99.90;;;;;;5030290;28;20454;-62
2022/08/05 10:26:50;;;;;;;3.37;3.07;;;27.20;99.90;;;;;;5030583;28;20472;-62
2022/08/05 10:29:17;;;;;;;2.67;2.57;;;27.10;99.90;;;;;;5031348;28;20484;-61
2022/08/05 10:31:44;;;;;;;5.30;4.03;;;27.10;99.90;;;;;;5031592;28;20485;-62
2022/08/05 10:34:11;;;;;;;5.40;2.93;;;27.10;99.90;;;;;;5047168;28;20862;-57
2022/08/05 10:36:40;;;;;;;3.20;2.90;;;27.10;99.90;;;;;;5029356;28;20531;-56
2022/08/05 10:39:15;;;;;;;2.40;2.30;;;27.10;99.90;;;;;;5028530;28;20841;-58
2022/08/05 10:41:52;;;;;;;4.17;3.10;;;27.10;99.90;;;;;;5028289;28;20447;-52
2022/08/05 10:44:22;;;;;;;3.10;2.90;;;27.10;99.90;;;;;;5028008;28;20476;-53
2022/08/05 10:46:51;;;;;;;4.70;3.40;;;27.10;99.90;;;;;;5044845;28;20448;-58
2022/08/05 10:49:19;;;;;;;5.50;3.27;;;27.10;99.90;;;;;;5047857;28;20452;-56
2022/08/05 10:51:47;;;;;;;3.00;2.80;;;27.10;99.90;;;;;;5047952;28;20484;-56
2022/08/05 10:54:15;;;;;;;2.80;2.60;;;27.10;99.90;;;;;;5038034;28;20473;-56
2022/08/05 10:56:48;;;;;;;3.20;3.00;;;27.10;99.90;;;;;;5027902;28;20488;-59
2022/08/05 10:59:19;;;;;;;3.77;3.50;;;27.10;99.90;;;;;;5027977;28;20473;-56
2022/08/05 11:01:46;;;;;;;3.03;2.80;;;27.10;99.90;;;;;;5023136;28;20456;-58
2022/08/05 11:04:16;;;;;;;2.90;2.70;;;27.20;99.90;;;;;;5023175;28;20504;-64
2022/08/05 11:07:07;;;;;;;3.50;2.60;;;27.20;99.90;;;;;;5034407;28;20444;-56
2022/08/05 11:09:44;;;;;;;2.40;2.30;;;27.30;99.90;;;;;;5034454;28;20536;-63
2022/08/05 11:13:49;;;;;;;3.20;2.47;;;27.30;99.90;;;;;;5057056;27;20582;-59
2022/08/05 11:16:23;;;;;;;2.80;2.60;;;27.40;99.90;;;;;;5068987;28;20463;-59
2022/08/05 11:19:26;;;;;;;2.77;2.67;;;27.40;99.90;;;;;;5068983;28;20538;-58
2022/08/05 11:21:54;;;;;;;2.30;2.20;;;27.40;99.90;;;;;;5071601;28;20534;-58
2022/08/05 11:24:22;;;;;;;3.90;2.80;;;27.40;99.90;;;;;;5047876;28;21112;-62
2022/08/05 11:26:50;;;;;;;2.80;2.60;;;27.40;99.90;;;;;;5048894;28;20876;-61
2022/08/05 11:29:39;;;;;;;3.73;3.30;;;27.40;99.90;;;;;;5048808;28;20493;-58
2022/08/05 11:32:26;;;;;;;4.20;3.90;;;27.40;99.90;;;;;;5058749;28;20537;-64
2022/08/05 11:34:53;;;;;;;3.83;3.53;;;27.40;99.90;;;;;;5068512;28;20466;-58
2022/08/05 11:37:42;;;;;;;2.60;2.50;;;27.50;99.90;;;;;;5068535;28;20459;-59
2022/08/05 11:40:09;;;;;;;2.63;2.53;;;27.50;99.90;;;;;;5068572;28;20554;-59
2022/08/05 11:42:40;;;;;;;5.70;3.43;;;27.50;99.90;;;;;;5053946;28;20483;-49
2022/08/05 11:45:09;;;;;;;3.50;3.30;;;27.50;99.90;;;;;;5048243;28;20464;-53
2022/08/05 11:47:36;;;;;;;4.00;3.73;;;27.50;99.90;;;;;;5048471;28;20478;-55
2022/08/05 11:50:04;;;;;;;3.60;3.40;;;27.50;99.90;;;;;;5048454;28;20488;-57
2022/08/05 11:52:31;;;;;;;3.00;2.90;;;27.50;99.90;;;;;;5061156;28;20566;-60
2022/08/05 11:54:59;;;;;;;3.93;3.63;;;27.60;99.90;;;;;;5067981;28;20459;-56
2022/08/05 11:57:30;;;;;;;3.57;3.37;;;27.60;99.90;;;;;;5068215;28;20460;-60
2022/08/05 11:59:57;;;;;;;4.77;3.90;;;27.60;99.90;;;;;;5062308;28;20456;-53
2022/08/05 12:02:28;;;;;;;3.20;3.00;;;27.60;99.90;;;;;;5048084;28;20507;-49
2022/08/05 12:04:55;;;;;;;4.07;3.83;;;27.50;99.90;;;;;;5059866;28;20483;-48
2022/08/05 12:07:22;;;;;;;4.33;3.93;;;27.40;98.60;;;;;;5067700;28;20543;-50
2022/08/05 12:09:54;;;;;;;4.20;3.90;;;27.20;97.10;;;;;;5067848;28;20538;-50
2022/08/05 12:12:22;;;;;;;3.60;3.40;;;27.20;97.40;;;;;;5065141;28;20617;-50
2022/08/05 12:14:49;;;;;;;3.97;3.73;;;27.10;98.60;;;;;;5047780;28;20479;-48
2022/08/05 12:17:16;;;;;;;4.30;4.00;;;27.00;98.50;;;;;;5047999;28;20543;-49
2022/08/05 12:19:47;;;;;;;5.63;5.27;;;26.90;97.20;;;;;;5053374;28;20546;-50
2022/08/05 12:22:14;;;;;;;5.20;4.70;;;26.80;95.60;;;;;;5067607;28;20507;-50
2022/08/05 12:24:42;;;;;;;4.40;4.10;;;26.70;95.10;;;;;;5056489;28;20459;-48
2022/08/05 12:27:09;;;;;;;5.13;4.83;;;26.70;96.40;;;;;;5054356;28;20456;-49
2022/08/05 12:29:37;;;;;;;4.83;4.50;;;26.70;96.30;;;;;;5049508;28;20667;-50
2022/08/05 12:32:05;;;;;;;5.23;4.93;;;26.60;95.20;;;;;;5034226;28;20477;-65
2022/08/05 12:34:35;;;;;;;5.77;5.30;;;26.60;96.30;;;;;;5034103;28;20545;-57
2022/08/05 12:37:09;;;;;;;5.13;4.67;;;26.60;95.80;;;;;;5034062;28;20468;-62
2022/08/05 12:39:37;;;;;;;5.50;4.90;;;26.60;95.40;;;;;;5040587;28;20459;-66
2022/08/05 12:42:09;;;;;;;5.77;5.27;;;26.60;94.90;;;;;;5054074;28;20549;-65
2022/08/05 12:44:36;;;;;;;7.00;5.23;;;26.70;94.40;;;;;;5053888;28;20552;-53
2022/08/05 12:47:04;;;;;;;5.77;5.30;;;26.70;94.00;;;;;;5053968;28;20545;-55
2022/08/05 12:49:43;;;;;;;5.00;4.70;;;26.70;93.30;;;;;;5047783;28;20457;-52
2022/08/05 12:52:14;;;;;;;5.50;5.10;;;26.70;92.40;;;;;;5033941;28;20481;-55
2022/08/05 12:54:42;;;;;;;5.63;5.00;;;26.70;94.00;;;;;;5033675;28;20782;-53
2022/08/05 12:57:10;;;;;;;5.90;5.50;;;26.60;93.70;;;;;;5033820;28;20463;-53
2022/08/05 12:59:46;;;;;;;5.43;5.13;;;26.60;94.10;;;;;;5039456;28;20498;-56
2022/08/05 13:02:16;;;;;;;4.70;4.30;;;26.60;92.60;;;;;;5053543;28;21024;-51
2022/08/05 13:04:44;;;;;;;5.80;5.30;;;26.50;91.70;;;;;;5053430;28;20462;-52
2022/08/05 13:07:15;;;;;;;4.47;4.20;;;26.60;92.30;;;;;;5053490;28;20460;-52
2022/08/05 13:09:43;;;;;;;5.97;5.57;;;26.50;93.50;;;;;;5013787;28;20458;-52
2022/08/05 13:12:14;;;;;;;5.20;4.80;;;26.50;93.20;;;;;;5013419;28;20640;-51
2022/08/05 13:14:42;;;;;;;4.67;4.47;;;26.40;92.70;;;;;;5013614;28;20501;-53
2022/08/05 13:17:16;;;;;;;5.43;5.00;;;26.30;90.90;;;;;;5013686;28;20548;-52
2022/08/05 13:19:58;;;;;;;4.50;4.30;;;26.30;90.20;;;;;;5034515;28;21001;-52
2022/08/05 13:22:26;;;;;;;4.73;4.53;;;26.40;90.40;;;;;;5033233;28;20564;-53
2022/08/05 13:24:53;;;;;;;5.03;4.40;;;26.30;90.20;;;;;;5033155;28;20501;-51
2022/08/05 13:27:25;;;;;;;4.17;3.87;;;26.30;89.20;;;;;;5033260;28;20495;-58
2022/08/05 13:29:52;;;;;;;3.80;3.60;;;26.10;88.00;;;;;;5053355;28;20744;-55
2022/08/05 13:32:19;;;;;;;3.13;2.93;;;26.00;87.00;;;;;;5053057;28;20992;-56
2022/08/05 13:34:46;;;;;;;2.20;2.10;;;25.90;86.80;;;;;;5052639;28;20464;-56
2022/08/05 13:37:13;;;;;;;2.20;2.10;;;25.70;84.80;;;;;;5050614;28;20488;-55
2022/08/05 13:39:41;;;;;;;2.47;2.37;;;25.70;82.50;;;;;;5033185;28;20865;-56
2022/08/05 13:42:09;;;;;;;3.00;2.27;;;25.80;82.90;;;;;;5032959;28;20492;-56
2022/08/05 13:44:36;;;;;;;2.20;2.10;;;25.80;81.60;;;;;;5032955;28;20484;-54
2022/08/05 13:47:03;;;;;;;1.90;1.80;;;25.80;78.90;;;;;;5032929;28;20511;-56
2022/08/05 13:49:30;;;;;;;1.97;1.87;;;25.80;79.20;;;;;;5052718;28;20541;-53
2022/08/05 13:51:57;;;;;;;2.33;1.90;;;25.80;77.40;;;;;;5052627;28;20460;-56
2022/08/05 13:54:25;;;;;;;2.17;2.07;;;25.60;73.00;;;;;;5052622;28;20483;-52
2022/08/05 13:56:53;;;;;;;1.80;1.70;;;25.60;74.30;;;;;;5051787;28;20463;-52
2022/08/05 13:59:21;;;;;;;1.47;1.43;;;25.70;75.50;;;;;;5032881;28;20831;-55
2022/08/05 14:01:48;;;;;;;2.23;2.13;;;25.60;72.60;;;;;;5032742;28;20484;-53
2022/08/05 14:07:01;;;;;;;1.57;1.47;;;25.50;71.50;;;;;;5016326;28;20453;-51
2022/08/05 14:09:28;;;;;;;1.57;1.47;;;25.50;71.80;;;;;;5052507;28;20886;-53
2022/08/05 14:11:56;;;;;;;1.77;1.67;;;25.50;72.80;;;;;;5052167;28;20466;-56
2022/08/05 14:14:23;;;;;;;1.50;1.40;;;25.50;74.90;;;;;;5052190;28;20575;-54
2022/08/05 14:16:50;;;;;;;1.50;1.40;;;25.50;73.20;;;;;;5038333;28;20481;-56
2022/08/05 14:19:17;;;;;;;1.30;1.30;;;25.50;73.70;;;;;;5032244;28;20900;-51
2022/08/05 14:21:44;;;;;;;2.57;2.37;;;25.60;74.30;;;;;;5032165;28;20520;-53
2022/08/05 14:24:11;;;;;;;1.90;1.80;;;25.50;73.70;;;;;;5037292;28;20551;-56
2022/08/05 14:26:38;;;;;;;2.53;2.17;;;25.50;73.50;;;;;;5051954;28;20498;-55
2022/08/05 14:29:06;;;;;;;2.33;1.57;;;25.50;74.30;;;;;;5051888;28;20643;-53
2022/08/05 14:31:33;;;;;;;1.77;1.40;;;25.50;75.40;;;;;;5051948;28;20483;-53
2022/08/05 14:34:00;;;;;;;1.90;1.70;;;25.50;75.50;;;;;;5047647;28;20485;-55
2022/08/05 14:36:27;;;;;;;1.70;1.60;;;25.40;75.10;;;;;;5032088;28;20558;-53
2022/08/05 14:38:53;;;;;;;2.30;2.20;;;25.40;75.60;;;;;;5032043;28;20485;-54
2022/08/05 14:41:20;;;;;;;2.87;2.53;;;25.50;75.80;;;;;;5032000;28;20488;-52
2022/08/05 14:43:48;;;;;;;4.53;2.67;;;25.50;76.50;;;;;;5033128;28;20547;-54
2022/08/05 14:46:17;;;;;;;1.70;1.70;;;25.50;76.20;;;;;;5051455;28;20467;-52
2022/08/05 14:48:44;;;;;;;2.43;2.00;;;25.50;75.50;;;;;;5051813;28;20488;-52
2022/08/05 14:51:10;;;;;;;2.37;2.27;;;25.50;75.50;;;;;;5051634;28;20547;-56
2022/08/05 14:53:37;;;;;;;1.80;1.70;;;25.60;76.00;;;;;;5051304;28;20579;-56
2022/08/05 14:56:05;;;;;;;2.37;2.17;;;25.60;77.60;;;;;;5011872;28;20503;-53
2022/08/05 14:58:32;;;;;;;1.73;1.60;;;25.70;78.10;;;;;;5012066;28;20493;-55
2022/08/05 15:00:59;;;;;;;1.60;1.50;;;25.70;76.80;;;;;;5012021;28;20549;-56
2022/08/05 15:03:29;;;;;;;2.23;2.07;;;25.70;76.90;;;;;;5011887;28;20480;-53
2022/08/05 15:05:55;;;;;;;1.50;1.50;;;25.50;74.20;;;;;;5049147;28;20451;-56
2022/08/05 15:08:23;;;;;;;2.77;1.83;;;25.50;74.30;;;;;;5051606;28;20547;-56
2022/08/05 15:10:50;;;;;;;2.63;1.67;;;25.60;75.50;;;;;;5051436;28;20506;-57
2022/08/05 15:13:16;;;;;;;1.63;1.53;;;25.70;77.40;;;;;;5051325;28;20523;-55
2022/08/05 15:15:43;;;;;;;2.23;1.50;;;25.70;76.70;;;;;;5034155;28;20885;-56
2022/08/05 15:18:10;;;;;;;1.50;1.40;;;25.80;78.80;;;;;;5031608;28;20465;-56
2022/08/05 15:20:39;;;;;;;1.47;1.37;;;25.80;78.20;;;;;;5031535;28;20461;-54
2022/08/05 15:23:06;;;;;;;2.13;1.93;;;25.80;77.40;;;;;;5039929;28;20510;-55
2022/08/05 15:25:33;;;;;;;1.90;1.83;;;25.80;77.10;;;;;;5051230;28;20499;-54
2022/08/05 15:28:01;;;;;;;7.60;1.77;;;25.80;76.00;;;;;;5051373;28;20459;-52
2022/08/05 15:30:30;;;;;;;2.17;1.60;;;25.80;75.40;;;;;;5050260;28;20546;-55
2022/08/05 15:32:58;;;;;;;3.03;1.60;;;25.80;74.40;;;;;;5031203;28;20487;-56
2022/08/05 15:35:26;;;;;;;1.10;1.10;;;25.80;74.60;;;;;;5031167;28;20879;-56
2022/08/05 15:37:54;;;;;;;0.97;0.97;;;25.90;72.00;;;;;;5031412;28;20480;-52
2022/08/05 15:40:22;;;;;;;1.63;1.52;;;25.90;69.80;;;;;;5030597;28;20498;-59
2022/08/05 15:42:48;;;;;;;1.60;1.60;;;26.00;69.10;;;;;;5050811;28;20306;-58
2022/08/05 15:45:16;;;;;;;1.50;1.40;;;26.10;66.90;;;;;;5044688;28;20457;-58
2022/08/05 15:47:44;;;;;;;2.07;1.97;;;26.10;63.60;;;;;;5031296;28;20973;-58
2022/08/05 15:50:12;;;;;;;1.40;1.40;;;26.10;64.40;;;;;;5031286;28;20881;-56
2022/08/05 15:52:40;;;;;;;1.33;1.33;;;26.10;62.40;;;;;;5037739;28;20511;-54
2022/08/05 15:55:12;;;;;;;1.43;1.37;;;26.10;60.00;;;;;;5033657;28;20475;-54
2022/08/05 15:57:39;;;;;;;1.60;1.00;;;26.10;57.60;;;;;;5051047;28;20460;-58
2022/08/05 16:00:09;;;;;;;1.27;1.17;;;26.10;57.30;;;;;;5054079;28;20921;-58
2022/08/05 16:02:36;;;;;;;1.17;1.07;;;26.20;59.60;;;;;;5054738;28;20535;-58
2022/08/05 16:05:04;;;;;;;1.43;1.23;;;26.30;59.40;;;;;;5036903;28;20481;-59
2022/08/05 16:07:31;;;;;;;1.10;1.10;;;26.30;58.30;;;;;;5034916;28;20540;-57
2022/08/05 16:09:58;;;;;;;0.80;0.80;;;26.30;57.80;;;;;;5034751;28;20483;-56
2022/08/05 16:12:27;;;;;;;1.30;1.13;;;26.30;57.30;;;;;;5034500;28;20484;-57
2022/08/05 16:14:54;;;;;;;1.50;1.50;;;26.30;57.20;;;;;;5049127;28;21055;-57
2022/08/05 16:17:21;;;;;;;1.10;1.00;;;26.40;56.80;;;;;;5054193;28;20555;-57
2022/08/05 16:19:48;;;;;;;1.53;1.43;;;26.40;57.20;;;;;;5054504;28;20484;-56
2022/08/05 16:22:15;;;;;;;1.40;1.40;;;26.40;55.90;;;;;;5054465;28;20508;-57
2022/08/05 16:24:42;;;;;;;1.00;1.00;;;26.40;55.00;;;;;;5043100;28;20484;-59
2022/08/05 16:27:09;;;;;;;1.40;1.30;;;26.40;55.60;;;;;;5034537;28;20488;-57
2022/08/05 16:29:37;;;;;;;0.90;0.90;;;26.40;54.90;;;;;;5034496;28;20539;-58
2022/08/05 16:32:05;;;;;;;2.00;1.00;;;26.50;53.80;;;;;;5034210;28;20496;-54
2022/08/05 16:34:32;;;;;;;1.40;1.40;;;26.40;52.50;;;;;;5035003;28;20560;-58
2022/08/05 16:36:58;;;;;;;1.23;1.23;;;26.30;50.60;;;;;;5034330;28;20873;-57
2022/08/05 16:39:25;;;;;;;1.03;1.00;;;26.30;50.70;;;;;;5034168;28;20493;-57
2022/08/05 16:41:52;;;;;;;1.30;1.30;;;26.30;50.90;;;;;;5034340;28;20881;-58
2022/08/05 16:44:19;;;;;;;1.23;1.23;;;26.30;50.00;;;;;;5033942;28;20500;-59
2022/08/05 16:46:47;;;;;;;1.13;0.93;;;26.30;50.30;;;;;;5043932;28;20840;-52
2022/08/05 16:49:15;;;;;;;1.23;1.13;;;26.30;50.40;;;;;;5053955;28;20879;-57
2022/08/05 16:51:43;;;;;;;2.93;1.00;;;26.40;51.00;;;;;;5053877;28;20456;-57
2022/08/05 16:54:10;;;;;;;0.70;0.70;;;26.30;49.50;;;;;;5052448;28;20525;-51
2022/08/05 16:56:37;;;;;;;1.00;1.00;;;26.20;49.10;;;;;;5053792;28;20213;-58
2022/08/05 16:59:07;;;;;;;1.30;1.27;;;26.20;47.50;;;;;;5041390;28;20788;-57
2022/08/05 17:01:35;;;;;;;1.47;1.30;;;26.20;48.30;;;;;;5050108;28;20456;-60
2022/08/05 17:04:05;;;;;;;1.00;1.00;;;26.30;49.50;;;;;;5053354;28;20559;-54
2022/08/05 17:06:32;;;;;;;1.17;1.17;;;26.30;48.90;;;;;;5053591;28;20474;-52
2022/08/05 17:09:00;;;;;;;1.23;1.10;;;26.40;48.70;;;;;;5053612;28;20449;-59
2022/08/05 17:11:29;;;;;;;1.37;1.27;;;26.30;48.70;;;;;;5039495;28;20489;-57
2022/08/05 17:13:56;;;;;;;1.40;1.30;;;26.20;48.40;;;;;;5034007;28;20534;-58
2022/08/05 17:16:23;;;;;;;1.10;1.03;;;26.20;48.70;;;;;;5033424;28;20488;-53
2022/08/05 17:18:50;;;;;;;1.20;1.10;;;26.30;48.90;;;;;;5033459;28;20461;-56
2022/08/05 17:21:19;;;;;;;1.00;1.00;;;26.20;48.20;;;;;;5033537;28;20835;-56
2022/08/05 17:23:46;;;;;;;1.10;1.10;;;26.20;48.90;;;;;;5048359;28;20474;-51
2022/08/05 17:26:13;;;;;;;3.70;1.13;;;26.30;50.10;;;;;;5086306;22;20487;-57
2022/08/05 17:28:40;;;;;;;1.00;1.00;;;26.30;49.50;;;;;;5073164;28;20974;-55
2022/08/05 17:31:07;;;;;;;1.57;1.50;;;26.30;48.90;;;;;;5072841;28;20530;-67
2022/08/05 17:33:33;;;;;;;0.87;0.87;;;26.20;48.10;;;;;;5072873;28;20979;-62
2022/08/05 17:36:00;;;;;;;0.83;0.83;;;26.10;46.80;;;;;;5072810;28;20906;-62
2022/08/05 17:38:29;;;;;;;0.90;0.90;;;25.90;46.40;;;;;;5072900;28;20534;-61
2022/08/05 17:40:56;;;;;;;0.90;0.90;;;26.00;46.90;;;;;;5072746;28;20629;-64
2022/08/05 17:43:22;;;;;;;1.10;1.10;;;25.90;46.20;;;;;;5072862;28;20455;-64
2022/08/05 17:45:49;;;;;;;1.17;1.07;;;25.90;46.20;;;;;;5072694;28;20892;-67
2022/08/05 17:48:16;;;;;;;1.30;1.20;;;25.90;47.10;;;;;;5072753;28;20547;-65
2022/08/05 17:50:43;;;;;;;1.20;1.20;;;25.90;47.50;;;;;;5072506;28;20558;-64
2022/08/05 17:53:10;;;;;;;2.93;1.10;;;25.90;47.00;;;;;;5072716;28;20455;-66
2022/08/05 17:55:38;;;;;;;1.63;0.87;;;25.90;47.10;;;;;;5072318;28;20490;-62
2022/08/05 17:58:06;;;;;;;0.90;0.90;;;25.90;48.40;;;;;;5072740;28;20498;-63
2022/08/05 18:00:33;;;;;;;0.90;0.90;;;25.90;48.10;;;;;;5072301;28;21031;-64
2022/08/05 18:03:00;;;;;;;1.20;1.10;;;25.90;47.30;;;;;;5072490;28;20494;-62
2022/08/05 18:05:27;;;;;;;1.00;1.00;;;25.90;47.40;;;;;;5071948;28;20908;-63
2022/08/05 18:07:54;;;;;;;1.00;1.00;;;25.90;47.30;;;;;;5072468;28;20490;-64
2022/08/05 18:10:20;;;;;;;1.67;1.17;;;25.90;46.90;;;;;;5072448;28;20889;-58
2022/08/05 18:12:49;;;;;;;1.43;0.80;;;25.80;46.90;;;;;;5072139;28;20487;-65
2022/08/05 18:15:23;;;;;;;0.90;0.90;;;25.80;47.20;;;;;;5071724;28;21015;-63
2022/08/05 18:17:50;;;;;;;0.83;0.83;;;25.80;47.20;;;;;;5072053;28;20466;-64
2022/08/05 18:20:17;;;;;;;1.13;1.00;;;25.80;47.10;;;;;;5072281;28;20827;-66
2022/08/05 18:22:44;;;;;;;0.90;0.90;;;25.70;46.80;;;;;;5071772;28;20487;-65
2022/08/05 18:25:11;;;;;;;0.80;0.80;;;25.80;47.30;;;;;;5071546;28;20914;-64
2022/08/05 18:27:38;;;;;;;1.40;0.90;;;25.80;47.30;;;;;;5071835;28;20459;-64
2022/08/05 18:30:07;;;;;;;1.47;0.77;;;25.80;47.10;;;;;;5071925;28;20501;-62
2022/08/05 18:32:34;;;;;;;1.90;1.23;;;25.80;47.40;;;;;;5071982;28;20930;-59
2022/08/05 18:35:01;;;;;;;0.77;0.77;;;25.90;47.60;;;;;;5071265;28;20479;-59
2022/08/05 18:37:28;;;;;;;0.93;0.87;;;25.90;47.30;;;;;;5071866;28;20493;-57
2022/08/05 18:39:56;;;;;;;0.93;0.90;;;25.80;47.40;;;;;;5071922;28;20465;-59
2022/08/05 18:42:22;;;;;;;1.77;0.80;;;25.80;47.90;;;;;;5071870;28;20960;-60
2022/08/05 18:44:49;;;;;;;1.20;1.20;;;25.80;47.90;;;;;;5071098;28;20562;-63
2022/08/05 18:47:17;;;;;;;2.60;1.40;;;25.80;48.00;;;;;;5051786;28;20547;-63
2022/08/05 18:52:32;;;;;;;1.17;1.17;;;25.90;48.60;;;;;;5051849;28;20486;-62
2022/08/05 18:54:59;;;;;;;1.20;1.10;;;25.80;49.30;;;;;;5054035;28;22302;-60
2022/08/05 18:57:26;;;;;;;2.13;1.10;;;25.70;48.90;;;;;;5071516;28;20490;-61
2022/08/05 18:59:53;;;;;;;1.13;1.10;;;25.70;48.70;;;;;;5071687;28;20463;-61
2022/08/05 19:02:21;;;;;;;0.70;0.70;;;25.60;48.90;;;;;;5071619;28;20540;-65
2022/08/05 19:04:48;;;;;;;0.80;0.80;;;25.60;49.00;;;;;;5071297;28;20482;-65
2022/08/05 19:07:15;;;;;;;1.00;1.00;;;25.60;49.10;;;;;;5071359;28;22583;-65
2022/08/05 19:09:44;;;;;;;0.97;0.97;;;25.50;49.00;;;;;;5071551;28;20540;-65
2022/08/05 19:12:11;;;;;;;0.90;0.90;;;25.50;49.20;;;;;;5071535;28;20459;-65
2022/08/05 19:14:38;;;;;;;1.20;0.87;;;25.40;49.00;;;;;;5071010;28;20518;-64
2022/08/05 19:17:05;;;;;;;0.83;0.83;;;25.20;49.00;;;;;;5071549;28;20459;-64
2022/08/05 19:19:33;;;;;;;1.70;0.70;;;25.20;49.30;;;;;;5071204;28;20515;-64
2022/08/05 19:22:00;;;;;;;0.93;0.93;;;25.20;49.50;;;;;;5071543;28;20546;-65
2022/08/05 19:24:27;;;;;;;2.10;1.10;;;25.10;49.80;;;;;;5071156;28;20917;-65
2022/08/05 19:26:54;;;;;;;1.07;0.93;;;25.00;49.70;;;;;;5071500;28;20459;-64
2022/08/05 19:29:21;;;;;;;1.10;1.00;;;24.90;49.90;;;;;;5071353;28;20459;-65
2022/08/05 19:31:48;;;;;;;0.70;0.70;;;24.90;49.90;;;;;;5071080;28;20470;-64
2022/08/05 19:34:15;;;;;;;0.67;0.60;;;24.90;50.20;;;;;;5072838;28;20479;-65
2022/08/05 19:36:43;;;;;;;0.80;0.80;;;25.00;50.50;;;;;;5075319;28;20461;-65
2022/08/05 19:39:10;;;;;;;1.17;1.17;;;24.90;50.20;;;;;;5075310;28;20491;-65
2022/08/05 19:41:37;;;;;;;1.17;0.97;;;24.80;50.20;;;;;;5074886;28;20494;-64
2022/08/05 19:44:05;;;;;;;0.90;0.90;;;24.70;50.30;;;;;;5075026;28;20541;-64
2022/08/05 19:46:32;;;;;;;0.80;0.80;;;24.70;50.50;;;;;;5075050;28;20459;-64
2022/08/05 19:48:59;;;;;;;1.93;0.87;;;24.70;50.50;;;;;;5075098;28;20486;-64
2022/08/05 19:51:27;;;;;;;1.33;0.97;;;24.60;50.60;;;;;;5074613;28;20467;-65
2022/08/05 19:53:55;;;;;;;1.63;0.90;;;24.60;50.70;;;;;;5074480;28;20491;-64
2022/08/05 19:56:22;;;;;;;1.23;0.80;;;24.50;50.80;;;;;;5074819;28;20486;-65
2022/08/05 19:58:49;;;;;;;1.20;1.20;;;24.60;51.00;;;;;;5074817;28;20498;-64
2022/08/05 20:01:16;;;;;;;0.80;0.80;;;24.50;51.10;;;;;;5074986;28;20971;-64
2022/08/05 20:03:44;;;;;;;1.20;1.10;;;24.50;51.50;;;;;;5074500;28;20490;-65
2022/08/05 20:06:11;;;;;;;0.97;0.90;;;24.50;51.80;;;;;;5074680;28;20483;-66
2022/08/05 20:08:38;;;;;;;1.63;0.80;;;24.50;52.00;;;;;;5074811;28;20544;-65
2022/08/05 20:11:06;;;;;;;1.60;1.50;;;24.40;52.10;;;;;;5074786;28;20459;-65
2022/08/05 20:13:33;;;;;;;1.17;1.07;;;24.40;52.50;;;;;;5074582;28;20458;-64
2022/08/05 20:16:00;;;;;;;1.10;1.10;;;24.20;52.60;;;;;;5073711;28;20507;-65
2022/08/05 20:18:27;;;;;;;1.10;1.00;;;24.20;53.10;;;;;;5074350;28;20457;-63
2022/08/05 20:20:55;;;;;;;1.53;1.43;;;24.10;53.50;;;;;;5074494;28;20495;-64
2022/08/05 20:23:22;;;;;;;0.90;0.90;;;24.10;54.40;;;;;;5074475;28;20522;-64
2022/08/05 20:25:49;;;;;;;0.80;0.80;;;24.10;54.10;;;;;;5073727;28;20562;-65
2022/08/05 20:28:17;;;;;;;0.80;0.73;;;24.10;54.30;;;;;;5074384;28;20459;-64
2022/08/05 20:30:44;;;;;;;0.80;0.80;;;24.20;54.60;;;;;;5074424;28;20486;-65
2022/08/05 20:33:11;;;;;;;4.43;1.53;;;24.30;54.90;;;;;;5074284;28;20885;-65
2022/08/05 20:35:38;;;;;;;1.57;1.20;;;24.30;54.90;;;;;;5074014;28;20491;-64
2022/08/05 20:38:05;;;;;;;1.90;0.90;;;24.20;55.10;;;;;;5074163;28;20508;-64
2022/08/05 20:40:34;;;;;;;1.63;1.53;;;24.10;55.30;;;;;;5074342;28;20485;-66
2022/08/05 20:43:02;;;;;;;1.33;1.00;;;24.20;55.60;;;;;;5074250;28;20462;-65
2022/08/05 20:45:30;;;;;;;1.10;1.00;;;24.10;55.70;;;;;;5073096;28;20474;-65
2022/08/05 20:47:58;;;;;;;2.87;0.90;;;24.10;56.00;;;;;;5073999;28;20463;-65
2022/08/05 20:50:25;;;;;;;1.17;1.00;;;24.10;56.20;;;;;;5074074;28;20455;-65
2022/08/05 20:52:52;;;;;;;1.30;1.20;;;24.00;56.40;;;;;;5074053;28;20952;-65
2022/08/05 20:55:19;;;;;;;1.33;0.90;;;24.00;56.70;;;;;;5073258;28;20578;-64
2022/08/05 20:57:45;;;;;;;0.83;0.83;;;24.10;56.90;;;;;;5073836;28;20594;-65
2022/08/05 21:00:15;;;;;;;2.20;1.57;;;24.10;56.90;;;;;;5074026;28;20520;-65
2022/08/05 21:02:43;;;;;;;1.10;1.03;;;24.10;57.10;;;;;;5073677;28;20455;-64
2022/08/05 21:05:10;;;;;;;1.40;1.30;;;24.10;57.10;;;;;;5073588;28;20475;-64
2022/08/05 21:07:37;;;;;;;1.20;1.10;;;24.10;57.30;;;;;;5073513;28;20455;-64
2022/08/05 21:10:08;;;;;;;1.20;1.10;;;24.00;57.50;;;;;;5073731;28;20481;-65
2022/08/05 21:12:34;;;;;;;1.93;1.40;;;24.00;57.60;;;;;;5073744;28;20455;-64
2022/08/05 21:15:01;;;;;;;1.00;1.00;;;24.00;57.90;;;;;;5073110;28;20487;-64
2022/08/05 21:17:28;;;;;;;1.00;1.00;;;24.00;57.90;;;;;;5073490;28;20451;-65
2022/08/05 21:19:57;;;;;;;1.20;1.20;;;23.90;58.00;;;;;;5073363;28;20589;-64
2022/08/05 21:22:23;;;;;;;1.13;1.10;;;23.90;58.20;;;;;;5073394;28;20966;-64
2022/08/05 21:24:51;;;;;;;2.00;1.10;;;23.80;58.10;;;;;;5072917;28;20552;-65
2022/08/05 21:27:18;;;;;;;1.17;1.07;;;23.90;58.20;;;;;;5073326;28;20455;-65
2022/08/05 21:29:44;;;;;;;1.17;1.10;;;23.90;58.10;;;;;;5073259;28;20456;-65
2022/08/05 21:32:11;;;;;;;1.10;1.10;;;23.80;58.00;;;;;;5072980;28;20487;-63
2022/08/05 21:34:38;;;;;;;0.90;0.90;;;23.70;57.90;;;;;;5072893;28;20895;-65
2022/08/05 21:37:07;;;;;;;1.60;1.50;;;23.70;58.10;;;;;;5073114;28;20991;-65
2022/08/05 21:39:34;;;;;;;1.20;1.10;;;23.80;58.30;;;;;;5073066;28;20467;-65
2022/08/05 21:42:01;;;;;;;1.33;1.20;;;23.70;58.20;;;;;;5072968;28;21026;-65
2022/08/05 21:44:28;;;;;;;1.00;1.00;;;23.70;58.10;;;;;;5072498;28;20533;-64
2022/08/05 21:46:55;;;;;;;2.67;1.07;;;23.70;58.40;;;;;;5072994;28;20479;-66
2022/08/05 21:49:22;;;;;;;3.07;1.10;;;23.70;58.40;;;;;;5072932;28;20534;-64
2022/08/05 21:51:49;;;;;;;1.90;1.30;;;23.70;58.20;;;;;;5072567;28;20952;-64
2022/08/05 21:54:17;;;;;;;2.60;1.20;;;23.60;58.10;;;;;;5072563;28;20885;-64
2022/08/05 21:56:44;;;;;;;2.60;1.13;;;23.60;57.90;;;;;;5071696;28;20582;-66
2022/08/05 21:59:11;;;;;;;1.40;1.30;;;23.60;58.10;;;;;;5072675;28;20528;-60
2022/08/05 22:01:38;;;;;;;0.80;0.80;;;23.40;57.80;;;;;;5072375;28;20542;-62
2022/08/05 22:04:05;;;;;;;1.07;0.97;;;23.50;58.00;;;;;;5072376;28;20487;-62
2022/08/05 22:06:31;;;;;;;2.77;2.57;;;23.40;57.80;;;;;;5072387;28;20865;-61
2022/08/05 22:08:58;;;;;;;10.53;9.47;;;23.40;57.90;;;;;;5072494;28;20458;-61
2022/08/05 22:11:28;;;;;;;32.93;27.27;;;23.40;57.90;;;;;;5072340;28;20538;-62
2022/08/05 22:13:55;;;;;;;25.40;21.37;;;23.30;57.90;;;;;;5071947;28;20451;-62
2022/08/05 22:16:22;;;;;;;19.47;17.43;;;23.30;57.70;;;;;;5072134;28;20582;-62
2022/08/05 22:18:49;;;;;;;14.03;11.03;;;23.30;57.60;;;;;;5072291;28;20517;-61
2022/08/05 22:21:16;;;;;;;12.00;9.43;;;23.30;57.60;;;;;;5072316;28;20462;-61
2022/08/05 22:29:14;;;;;;;3.20;3.00;;;23.20;57.40;;;;;;5072185;28;20845;-59
2022/08/05 22:31:41;;;;;;;3.83;3.53;;;23.20;57.30;;;;;;5072045;28;20463;-60
2022/08/05 22:34:08;;;;;;;2.90;2.67;;;23.30;57.80;;;;;;5071779;28;20461;-59
2022/08/05 22:36:34;;;;;;;2.93;2.70;;;23.20;57.70;;;;;;5071885;28;20483;-60
2022/08/05 22:39:01;;;;;;;2.57;2.40;;;23.20;57.40;;;;;;5071669;28;20834;-61
2022/08/05 22:41:30;;;;;;;2.43;1.87;;;23.20;57.60;;;;;;5071875;28;20499;-58
2022/08/05 22:43:58;;;;;;;3.13;1.87;;;23.20;57.70;;;;;;5071779;28;20891;-60
2022/08/05 22:46:25;;;;;;;3.53;1.67;;;23.20;57.60;;;;;;5071798;28;20532;-60
2022/08/05 22:48:51;;;;;;;1.80;1.70;;;23.10;57.50;;;;;;5071843;28;20485;-59
2022/08/05 22:51:18;;;;;;;3.50;1.97;;;23.20;57.80;;;;;;5071571;28;20494;-60
2022/08/05 22:53:45;;;;;;;2.00;1.90;;;23.30;57.70;;;;;;5071536;28;20564;-61
2022/08/05 22:56:12;;;;;;;3.37;1.70;;;23.30;57.60;;;;;;5071528;28;20914;-59